Aurora, Ohio
Current Conditions -  °F | °C
As of 4:37 AM on Monday 20 Oct 2014 (Local Time) from KPOV Reporting Station
Overcast Overcast  
Wind Chill: 45°   Ceiling: 11000
Heat Index: 45°   Visibility: 10mi
Dew Point: 34°   Wind: 0mph
Humidity: 67%   Direction: NA
Pressure: 30"   Gusts: NA
Location:  41.31°N, 81.34°W
Report Text: KPOV 200837Z AUTO 00000KT 10SM OVC110 07/01 A3000 RMK AO2 T00710013
Loading
Personal Weather Stations






























Interactive Weather Map New forecast layout! Learn more

10-Day Weather Forecast

Advertisements
Track Severe Weather on mobile